createdAt,value
2023-12-09T00:01:46.686Z,97761.09
2023-12-09T00:04:13.969Z,97765.53
2023-12-09T00:06:51.483Z,97759.94
2023-12-09T00:09:21.815Z,97757.25
2023-12-09T00:11:49.001Z,97756.75
2023-12-09T00:14:16.336Z,97759.72
2023-12-09T00:16:46.638Z,97756.56
2023-12-09T00:19:14.599Z,97763.22
2023-12-09T00:21:42.256Z,97761.75
2023-12-09T00:24:15.330Z,97767.16
2023-12-09T00:26:42.649Z,97759.78
2023-12-09T00:29:11.929Z,97756.06
2023-12-09T00:31:39.054Z,97757.81
2023-12-09T00:34:06.908Z,97759.03
2023-12-09T00:36:34.539Z,97760.25
2023-12-09T00:39:04.092Z,97759.78
2023-12-09T00:41:33.090Z,97759.53
2023-12-09T00:44:00.201Z,97766.59
2023-12-09T00:46:27.414Z,97769.53
2023-12-09T00:48:55.220Z,97769.53
2023-12-09T00:51:22.588Z,97768.25
2023-12-09T00:53:49.818Z,97766.75
2023-12-09T00:56:33.030Z,97760.63
2023-12-09T00:59:06.478Z,97760.84
2023-12-09T01:01:36.919Z,97763.53
2023-12-09T01:04:07.568Z,97769.44
2023-12-09T01:06:37.284Z,97771.09
2023-12-09T01:09:04.702Z,97767.19
2023-12-09T01:11:31.838Z,97771.38
2023-12-09T01:13:59.059Z,97767.19
2023-12-09T01:16:26.173Z,97774.53
2023-12-09T01:18:53.619Z,97777.97
2023-12-09T01:21:20.850Z,97773.06
2023-12-09T01:23:48.078Z,97774.75
2023-12-09T01:26:15.267Z,97774.75
2023-12-09T01:28:42.517Z,97765.16
2023-12-09T01:31:09.844Z,97773.28
2023-12-09T01:33:39.055Z,97775.72
2023-12-09T01:36:06.308Z,97771.50
2023-12-09T01:38:33.533Z,97778.13
2023-12-09T01:41:00.673Z,97779.09
2023-12-09T01:43:27.986Z,97776.13
2023-12-09T01:45:57.322Z,97773.13
2023-12-09T01:48:25.400Z,97779.50
2023-12-09T01:50:52.786Z,97773.09
2023-12-09T01:53:19.969Z,97769.66
2023-12-09T01:55:48.114Z,97768.91
2023-12-09T01:58:16.451Z,97781.13
2023-12-09T02:00:46.764Z,97781.59
2023-12-09T02:03:14.428Z,97776.19
2023-12-09T02:05:43.268Z,97768.56
2023-12-09T02:08:13.799Z,97778.91
2023-12-09T02:10:41.798Z,97768.84
2023-12-09T02:13:21.810Z,97778.16
2023-12-09T02:15:55.460Z,97780.84
2023-12-09T02:18:23.810Z,97787.47
2023-12-09T02:20:53.437Z,97787.00
2023-12-09T02:23:20.879Z,97795.84
2023-12-09T02:25:51.220Z,97796.31
2023-12-09T02:28:21.663Z,97788.47
2023-12-09T02:34:11.708Z,97791.41
2023-12-09T02:36:43.537Z,97798.00
2023-12-09T02:39:11.770Z,97796.06
2023-12-09T02:41:42.244Z,97807.31
2023-12-09T02:44:09.621Z,97799.22
2023-12-09T02:46:36.946Z,97801.91
2023-12-09T02:49:14.832Z,97796.50
2023-12-09T02:51:44.945Z,97794.84
2023-12-09T02:54:17.052Z,97794.84
2023-12-09T02:56:44.325Z,97804.44
2023-12-09T02:59:11.461Z,97792.16
2023-12-09T03:01:40.415Z,97800.25
2023-12-09T03:04:09.593Z,97801.00
2023-12-09T03:06:43.655Z,97803.22
2023-12-09T03:09:10.966Z,97795.59
2023-12-09T03:11:39.040Z,97801.16
2023-12-09T03:14:30.971Z,97809.75
2023-12-09T03:17:30.479Z,97808.28
2023-12-09T03:19:57.999Z,97811.72
2023-12-09T03:23:10.545Z,97820.06
2023-12-09T03:25:48.826Z,97820.06
2023-12-09T03:28:31.389Z,97816.63
2023-12-09T03:31:05.613Z,97810.00
2023-12-09T03:36:27.750Z,97804.63
2023-12-09T03:38:59.268Z,97807.31
2023-12-09T03:41:31.245Z,97818.88
2023-12-09T03:44:00.995Z,97798.22
2023-12-09T03:49:43.936Z,97816.38
2023-12-09T03:52:30.481Z,97817.38
2023-12-09T03:55:01.462Z,97822.78
2023-12-09T03:57:40.446Z,97818.88
2023-12-09T04:00:12.724Z,97815.72
2023-12-09T04:02:45.500Z,97818.88
2023-12-09T04:08:00.345Z,97813.66
2023-12-09T04:10:32.125Z,97820.81
2023-12-09T04:13:07.565Z,97815.72
2023-12-09T04:15:42.713Z,97825.56
2023-12-09T04:18:15.979Z,97824.81
2023-12-09T04:20:43.541Z,97830.75
2023-12-09T04:23:16.674Z,97826.56
2023-12-09T04:25:43.967Z,97827.59
2023-12-09T04:28:23.709Z,97824.44
2023-12-09T04:31:11.434Z,97829.81
2023-12-09T04:33:38.873Z,97818.28
2023-12-09T04:36:08.940Z,97830.75
2023-12-09T04:38:36.207Z,97833.19
2023-12-09T04:41:03.441Z,97832.44
2023-12-09T04:43:30.499Z,97829.00
2023-12-09T04:45:57.593Z,97835.41
2023-12-09T04:48:25.052Z,97832.72
2023-12-09T04:50:52.994Z,97833.75
2023-12-09T04:53:20.773Z,97828.06
2023-12-09T04:55:48.065Z,97830.31
2023-12-09T04:58:15.165Z,97830.56
2023-12-09T05:00:42.610Z,97825.34
2023-12-09T05:03:12.957Z,97809.13
2023-12-09T05:05:40.197Z,97811.41
2023-12-09T05:08:07.771Z,97806.25
2023-12-09T05:10:34.871Z,97812.88
2023-12-09T05:13:01.967Z,97818.06
2023-12-09T05:15:33.591Z,97823.47
2023-12-09T05:18:01.213Z,97820.28
2023-12-09T05:20:28.420Z,97817.59
2023-12-09T05:22:55.841Z,97814.63
2023-12-09T05:25:22.910Z,97809.97
2023-12-09T05:27:50.679Z,97810.97
2023-12-09T05:30:17.921Z,97811.72
2023-12-09T05:32:45.103Z,97811.50
2023-12-09T05:35:12.261Z,97807.41
2023-12-09T05:37:39.414Z,97805.97
2023-12-09T05:40:08.012Z,97810.72
2023-12-09T05:42:35.336Z,97798.19
2023-12-09T05:45:08.116Z,97798.44
2023-12-09T05:47:35.616Z,97794.53
2023-12-09T05:50:02.960Z,97795.28
2023-12-09T05:52:33.204Z,97785.97
2023-12-09T05:55:00.498Z,97778.88
2023-12-09T05:57:27.947Z,97770.75
2023-12-09T05:59:58.798Z,97770.00
2023-12-09T06:02:31.054Z,97773.19
2023-12-09T06:04:58.468Z,97784.47
2023-12-09T06:07:25.551Z,97776.63
2023-12-09T06:09:52.763Z,97775.59
2023-12-09T06:12:22.631Z,97777.06
2023-12-09T06:14:49.827Z,97789.09
2023-12-09T06:17:18.843Z,97784.41
2023-12-09T06:19:48.478Z,97779.81
2023-12-09T06:22:15.617Z,97783.25
2023-12-09T06:24:46.006Z,97783.78
2023-12-09T06:27:23.285Z,97776.91
2023-12-09T06:29:52.210Z,97780.59
2023-12-09T06:32:22.699Z,97784.59
2023-12-09T06:34:50.148Z,97768.38
2023-12-09T06:37:17.580Z,97774.03
2023-12-09T06:39:47.555Z,97782.69
2023-12-09T06:42:17.924Z,97782.72
2023-12-09T06:44:45.263Z,97784.00
2023-12-09T06:47:13.314Z,97768.53
2023-12-09T06:49:49.503Z,97786.00
2023-12-09T06:52:55.602Z,97780.41
2023-12-09T06:56:04.772Z,97778.97
2023-12-09T06:59:29.563Z,97776.78
2023-12-09T07:01:57.554Z,97778.81
2023-12-09T07:04:24.902Z,97791.38
2023-12-09T07:06:52.035Z,97785.97
2023-12-09T07:09:19.174Z,97795.56
2023-12-09T07:11:46.393Z,97792.13
2023-12-09T07:14:16.223Z,97784.97
2023-12-09T07:16:43.338Z,97786.44
2023-12-09T07:19:10.722Z,97796.53
2023-12-09T07:21:37.945Z,97791.13
2023-12-09T07:24:07.549Z,97795.78
2023-12-09T07:26:36.274Z,97796.25
2023-12-09T07:29:06.372Z,97796.53
2023-12-09T07:31:34.030Z,97794.81
2023-12-09T07:34:01.873Z,97791.88
2023-12-09T07:36:29.026Z,97789.25
2023-12-09T07:38:56.228Z,97786.78
2023-12-09T07:41:23.393Z,97791.75
2023-12-09T07:43:50.600Z,97794.47
2023-12-09T07:46:17.759Z,97793.31
2023-12-09T07:48:45.041Z,97795.56
2023-12-09T07:51:12.553Z,97790.94
2023-12-09T07:53:39.840Z,97796.88
2023-12-09T07:57:06.343Z,97784.13
2023-12-09T07:59:56.985Z,97782.44
2023-12-09T08:02:24.636Z,97773.34
2023-12-09T08:04:52.862Z,97766.72
2023-12-09T08:07:57.887Z,97765.50
2023-12-09T08:11:23.455Z,97752.66
2023-12-09T08:14:39.787Z,97767.69
2023-12-09T08:17:37.283Z,97765.22
2023-12-09T08:20:46.584Z,97759.59
2023-12-09T08:23:40.470Z,97756.41
2023-12-09T08:39:26.422Z,97749.22
2023-12-09T08:41:53.662Z,97755.41
2023-12-09T08:44:20.728Z,97759.34
2023-12-09T08:46:47.888Z,97752.47
2023-12-09T08:49:15.032Z,97762.09
2023-12-09T08:51:48.998Z,97750.75
2023-12-09T08:54:16.796Z,97756.41
2023-12-09T08:56:44.082Z,97759.13
2023-12-09T08:59:12.140Z,97764.06
2023-12-09T09:01:39.816Z,97760.38
2023-12-09T09:04:07.534Z,97767.53
2023-12-09T09:06:34.988Z,97767.03
2023-12-09T09:09:02.208Z,97766.81
2023-12-09T09:11:29.360Z,97762.88
2023-12-09T09:13:56.893Z,97761.41
2023-12-09T09:16:24.151Z,97764.38
2023-12-09T09:18:51.543Z,97759.47
2023-12-09T09:21:18.771Z,97751.56
2023-12-09T09:23:45.884Z,97759.47
2023-12-09T09:26:12.975Z,97751.59
2023-12-09T09:28:40.227Z,97744.69
2023-12-09T09:31:07.388Z,97738.78
2023-12-09T09:33:34.545Z,97738.53
2023-12-09T09:36:01.793Z,97732.63
2023-12-09T09:38:28.948Z,97731.88
2023-12-09T09:40:56.973Z,97735.09
2023-12-09T09:43:26.477Z,97735.84
2023-12-09T09:45:54.587Z,97720.03
2023-12-09T09:48:25.281Z,97724.22
2023-12-09T09:50:53.905Z,97717.56
2023-12-09T09:53:27.825Z,97712.16
2023-12-09T09:55:55.319Z,97719.03
2023-12-09T09:58:22.769Z,97719.03
2023-12-09T10:00:50.220Z,97720.50
2023-12-09T10:03:17.527Z,97710.63
2023-12-09T10:05:44.751Z,97710.84
2023-12-09T10:08:11.985Z,97704.13
2023-12-09T10:10:39.230Z,97706.53
2023-12-09T10:13:06.337Z,97713.84
2023-12-09T10:15:33.714Z,97710.31
2023-12-09T10:18:03.109Z,97707.88
2023-12-09T10:20:31.078Z,97705.91
2023-12-09T10:23:01.153Z,97705.69
2023-12-09T10:25:29.209Z,97704.47
2023-12-09T10:27:57.230Z,97699.81
2023-12-09T10:30:24.522Z,97700.53
2023-12-09T10:32:53.260Z,97683.78
2023-12-09T10:35:20.592Z,97681.84
2023-12-09T10:37:51.057Z,97671.50
2023-12-09T10:40:18.845Z,97670.03
2023-12-09T10:42:46.008Z,97661.16
2023-12-09T10:45:13.284Z,97655.28
2023-12-09T10:47:40.640Z,97642.19
2023-12-09T10:50:08.527Z,97631.25
2023-12-09T10:52:37.746Z,97626.94
2023-12-09T10:55:06.766Z,97622.94
2023-12-09T10:57:34.643Z,97621.59
2023-12-09T11:00:08.228Z,97618.13
2023-12-09T11:02:36.306Z,97610.19
2023-12-09T11:05:04.077Z,97608.59
2023-12-09T11:07:31.285Z,97605.84
2023-12-09T11:09:58.524Z,97610.28
2023-12-09T11:12:31.614Z,97604.50
2023-12-09T11:15:14.548Z,97601.53
2023-12-09T11:17:45.261Z,97604.50
2023-12-09T11:20:16.449Z,97595.06
2023-12-09T11:22:47.937Z,97599.47
2023-12-09T11:25:23.372Z,97597.25
2023-12-09T11:27:52.272Z,97591.50
2023-12-09T11:30:42.080Z,97588.44
2023-12-09T11:33:09.851Z,97584.69
2023-12-09T11:35:38.176Z,97581.03
2023-12-09T11:38:06.787Z,97571.88
2023-12-09T11:40:34.372Z,97564.41
2023-12-09T11:43:03.344Z,97562.63
2023-12-09T11:45:30.659Z,97552.78
2023-12-09T11:47:59.779Z,97553.81
2023-12-09T11:50:28.416Z,97545.69
2023-12-09T11:52:55.684Z,97540.75
2023-12-09T11:55:22.801Z,97537.75
2023-12-09T11:57:50.258Z,97544.22
2023-12-09T12:00:17.631Z,97537.56
2023-12-09T12:02:44.865Z,97517.84
2023-12-09T12:05:14.845Z,97520.69
2023-12-09T12:07:42.026Z,97516.31
2023-12-09T12:10:10.603Z,97504.28
2023-12-09T12:12:38.196Z,97513.69
2023-12-09T12:15:06.497Z,97504.03
2023-12-09T12:17:41.091Z,97507.34
2023-12-09T12:20:10.920Z,97501.72
2023-12-09T12:22:39.617Z,97485.69
2023-12-09T12:25:09.646Z,97484.69
2023-12-09T12:27:37.633Z,97489.13
2023-12-09T12:30:07.521Z,97477.50
2023-12-09T12:32:39.489Z,97472.38
2023-12-09T12:35:07.285Z,97471.38
2023-12-09T12:37:34.595Z,97470.66
2023-12-09T12:40:01.997Z,97468.97
2023-12-09T12:42:30.864Z,97458.03
2023-12-09T12:44:59.631Z,97453.59
2023-12-09T12:47:26.914Z,97452.34
2023-12-09T12:49:54.356Z,97450.09
2023-12-09T12:52:21.633Z,97436.50
2023-12-09T12:54:48.820Z,97436.50
2023-12-09T12:57:16.012Z,97422.97
2023-12-09T12:59:43.119Z,97423.25
2023-12-09T13:02:10.356Z,97417.59
2023-12-09T13:04:37.472Z,97409.19
2023-12-09T13:07:05.443Z,97405.75
2023-12-09T13:09:32.666Z,97400.09
2023-12-09T13:11:59.830Z,97395.88
2023-12-09T13:14:27.160Z,97394.88
2023-12-09T13:16:55.063Z,97384.00
2023-12-09T13:19:22.405Z,97378.28
2023-12-09T13:21:49.606Z,97372.34
2023-12-09T13:24:16.772Z,97363.44
2023-12-09T13:26:43.882Z,97375.06
2023-12-09T13:29:10.942Z,97373.06
2023-12-09T13:31:38.062Z,97367.13
2023-12-09T13:34:08.052Z,97358.44
2023-12-09T13:36:37.676Z,97361.41
2023-12-09T13:39:07.430Z,97350.53
2023-12-09T13:41:34.999Z,97339.66
2023-12-09T13:44:02.204Z,97326.28
2023-12-09T13:46:29.321Z,97323.56
2023-12-09T13:48:56.948Z,97313.72
2023-12-09T13:51:24.332Z,97317.47
2023-12-09T13:53:51.442Z,97317.47
2023-12-09T13:56:18.623Z,97300.94
2023-12-09T13:58:45.880Z,97304.19
2023-12-09T14:01:13.073Z,97303.72
2023-12-09T14:03:40.844Z,97291.69
2023-12-09T14:06:08.314Z,97291.72
2023-12-09T14:08:35.529Z,97285.13
2023-12-09T14:11:02.897Z,97278.78
2023-12-09T14:13:30.401Z,97267.25
2023-12-09T14:15:57.478Z,97267.38
2023-12-09T14:18:24.742Z,97254.81
2023-12-09T14:20:51.998Z,97255.84
2023-12-09T14:23:19.213Z,97249.97
2023-12-09T14:25:46.324Z,97250.25
2023-12-09T14:28:15.209Z,97252.56
2023-12-09T14:30:42.454Z,97254.81
2023-12-09T14:33:09.879Z,97252.66
2023-12-09T14:35:37.138Z,97256.38
2023-12-09T14:38:07.012Z,97253.22
2023-12-09T14:40:34.077Z,97254.94
2023-12-09T14:43:09.876Z,97246.88
2023-12-09T14:45:38.267Z,97247.63
2023-12-09T14:48:08.193Z,97255.56
2023-12-09T14:50:36.273Z,97241.75
2023-12-09T14:53:03.657Z,97248.41
2023-12-09T14:55:30.837Z,97239.91
2023-12-09T14:57:58.043Z,97235.56
2023-12-09T15:00:25.278Z,97228.72
2023-12-09T15:02:52.564Z,97236.69
2023-12-09T15:05:19.703Z,97242.66
2023-12-09T15:07:47.166Z,97231.16
2023-12-09T15:10:14.591Z,97228.25
2023-12-09T15:12:41.741Z,97218.22
2023-12-09T15:15:09.732Z,97222.44
2023-12-09T15:17:38.504Z,97216.56
2023-12-09T15:20:10.347Z,97213.13
2023-12-09T15:22:38.138Z,97195.94
2023-12-09T15:25:05.869Z,97200.88
2023-12-09T15:27:33.091Z,97192.25
2023-12-09T15:30:00.380Z,97182.91
2023-12-09T15:32:28.070Z,97171.13
2023-12-09T15:34:55.596Z,97174.31
2023-12-09T15:37:22.994Z,97165.97
2023-12-09T15:39:50.100Z,97159.31
2023-12-09T15:42:17.776Z,97140.44
2023-12-09T15:44:45.072Z,97121.00
2023-12-09T15:47:12.929Z,97124.94
2023-12-09T15:49:41.317Z,97124.47
2023-12-09T15:52:08.482Z,97120.28
2023-12-09T15:54:36.391Z,97103.09
2023-12-09T15:57:04.451Z,97098.94
2023-12-09T15:59:31.660Z,97086.41
2023-12-09T16:01:58.806Z,97080.75
2023-12-09T16:04:26.171Z,97066.28
2023-12-09T16:06:53.389Z,97060.59
2023-12-09T16:09:20.636Z,97053.72
2023-12-09T16:11:48.753Z,97060.13
2023-12-09T16:14:15.828Z,97057.94
2023-12-09T16:16:44.707Z,97052.03
2023-12-09T16:19:11.956Z,97055.22
2023-12-09T16:21:39.262Z,97043.69
2023-12-09T16:24:06.533Z,97048.81
2023-12-09T16:26:34.957Z,97043.91
2023-12-09T16:29:02.392Z,97025.72
2023-12-09T16:31:29.550Z,97028.66
2023-12-09T16:33:56.866Z,97023.25
2023-12-09T16:36:25.066Z,97019.09
2023-12-09T16:38:55.481Z,97021.06
2023-12-09T16:41:23.869Z,97018.63
2023-12-09T16:43:51.299Z,97010.97
2023-12-09T16:46:18.720Z,97004.09
2023-12-09T16:48:46.168Z,97004.84
2023-12-09T16:51:13.990Z,97004.84
2023-12-09T16:53:41.104Z,96996.72
2023-12-09T16:56:09.427Z,96998.69
2023-12-09T16:58:36.578Z,97000.41
2023-12-09T17:01:04.044Z,97008.78
2023-12-09T17:03:31.585Z,97001.88
2023-12-09T17:05:58.733Z,96992.28
2023-12-09T17:08:25.899Z,96973.34
2023-12-09T17:10:54.559Z,96952.69
2023-12-09T17:13:21.650Z,96950.72
2023-12-09T17:15:48.976Z,96938.22
2023-12-09T17:18:16.280Z,96940.19
2023-12-09T17:20:43.550Z,96938.00
2023-12-09T17:23:10.675Z,96935.03
2023-12-09T17:25:38.247Z,96934.56
2023-12-09T17:28:05.371Z,96933.31
2023-12-09T17:30:32.655Z,96920.75
2023-12-09T17:32:59.998Z,96918.06
2023-12-09T17:35:30.143Z,96904.03
2023-12-09T17:37:57.402Z,96887.31
2023-12-09T17:40:24.480Z,96876.75
2023-12-09T17:42:52.274Z,96864.72
2023-12-09T17:45:19.667Z,96854.84
2023-12-09T17:47:46.906Z,96856.09
2023-12-09T17:50:14.021Z,96842.28
2023-12-09T17:52:42.016Z,96838.13
2023-12-09T17:55:09.919Z,96837.16
2023-12-09T17:57:37.308Z,96816.25
2023-12-09T18:00:05.322Z,96813.03
2023-12-09T18:02:32.464Z,96790.16
2023-12-09T18:04:59.596Z,96781.81
2023-12-09T18:07:27.219Z,96778.31
2023-12-09T18:09:54.336Z,96765.00
2023-12-09T18:12:21.474Z,96759.84
2023-12-09T18:14:48.615Z,96737.19
2023-12-09T18:17:15.771Z,96734.19
2023-12-09T18:19:46.707Z,96724.59
2023-12-09T18:22:14.504Z,96720.38
2023-12-09T18:24:41.987Z,96715.19
2023-12-09T18:27:09.348Z,96716.34
2023-12-09T18:29:36.413Z,96712.88
2023-12-09T18:32:03.857Z,96704.47
2023-12-09T18:34:31.004Z,96711.06
2023-12-09T18:36:58.140Z,96699.47
2023-12-09T18:39:25.235Z,96696.25
2023-12-09T18:41:52.325Z,96684.63
2023-12-09T18:44:19.384Z,96665.19
2023-12-09T18:46:46.561Z,96656.56
2023-12-09T18:49:13.757Z,96649.38
2023-12-09T18:51:40.964Z,96633.34
2023-12-09T18:54:08.756Z,96624.97
2023-12-09T18:56:38.767Z,96616.84
2023-12-09T18:59:05.871Z,96613.41
2023-12-09T19:01:33.065Z,96604.75
2023-12-09T19:04:01.946Z,96609.66
2023-12-09T19:06:31.279Z,96611.63
2023-12-09T19:09:03.900Z,96595.41
2023-12-09T19:11:31.435Z,96613.09
2023-12-09T19:13:59.324Z,96618.72
2023-12-09T19:16:26.815Z,96615.00
2023-12-09T19:18:56.655Z,96617.72
2023-12-09T19:21:24.072Z,96614.81
2023-12-09T19:23:51.509Z,96603.00
2023-12-09T19:26:18.882Z,96614.13
2023-12-09T19:28:46.119Z,96603.56
2023-12-09T19:31:13.345Z,96606.59
2023-12-09T19:33:40.930Z,96599.50
2023-12-09T19:36:08.335Z,96595.31
2023-12-09T19:38:35.593Z,96599.50
2023-12-09T19:41:02.715Z,96594.34
2023-12-09T19:43:29.859Z,96599.34
2023-12-09T19:45:57.033Z,96578.69
2023-12-09T19:48:24.433Z,96581.69
2023-12-09T19:50:51.713Z,96578.06
2023-12-09T19:53:19.335Z,96573.44
2023-12-09T19:55:46.680Z,96575.69
2023-12-09T19:58:13.789Z,96557.97
2023-12-09T20:00:42.252Z,96558.22
2023-12-09T20:03:54.461Z,96554.03
2023-12-09T20:06:21.960Z,96549.34
2023-12-09T20:08:49.417Z,96538.31
2023-12-09T20:11:17.565Z,96527.50
2023-12-09T20:13:45.571Z,96531.44
2023-12-09T20:16:12.754Z,96521.66
2023-12-09T20:18:40.230Z,96524.44
2023-12-09T20:21:08.537Z,96529.41
2023-12-09T20:23:35.692Z,96516.66
2023-12-09T20:26:03.082Z,96515.03
2023-12-09T20:28:30.615Z,96512.84
2023-12-09T20:31:01.455Z,96495.00
2023-12-09T20:33:28.885Z,96489.88
2023-12-09T20:35:56.507Z,96482.84
2023-12-09T20:38:23.684Z,96486.81
2023-12-09T20:40:51.582Z,96485.34
2023-12-09T20:43:18.899Z,96487.31
2023-12-09T20:45:46.135Z,96487.59
2023-12-09T20:48:13.504Z,96478.00
2023-12-09T20:50:40.765Z,96478.47
2023-12-09T20:53:10.794Z,96483.16
2023-12-09T20:55:37.958Z,96468.66
2023-12-09T20:58:05.415Z,96439.50
2023-12-09T21:00:32.614Z,96444.81
2023-12-09T21:02:59.753Z,96440.19
2023-12-09T21:05:26.918Z,96425.06
2023-12-09T21:07:55.683Z,96428.84
2023-12-09T21:10:23.361Z,96428.88
2023-12-09T21:12:51.608Z,96431.16
2023-12-09T21:15:19.172Z,96417.91
2023-12-09T21:17:46.626Z,96417.69
2023-12-09T21:20:13.915Z,96403.97
2023-12-09T21:22:41.063Z,96399.59
2023-12-09T21:25:10.738Z,96411.13
2023-12-09T21:27:38.248Z,96411.59
2023-12-09T21:30:06.941Z,96387.31
2023-12-09T21:32:35.088Z,96390.81
2023-12-09T21:35:02.189Z,96366.28
2023-12-09T21:37:29.283Z,96361.38
2023-12-09T21:39:56.597Z,96345.44
2023-12-09T21:42:23.768Z,96335.34
2023-12-09T21:44:53.824Z,96321.63
2023-12-09T21:47:22.951Z,96327.00
2023-12-09T21:49:50.259Z,96321.84
2023-12-09T21:52:17.578Z,96319.38
2023-12-09T21:54:45.573Z,96337.72
2023-12-09T21:57:12.760Z,96338.88
2023-12-09T21:59:40.158Z,96341.81
2023-12-09T22:02:07.312Z,96339.03
2023-12-09T22:04:34.519Z,96353.50
2023-12-09T22:07:01.600Z,96355.69
2023-12-09T22:09:28.770Z,96365.25
2023-12-09T22:11:55.860Z,96371.38
2023-12-09T22:14:23.007Z,96368.41
2023-12-09T22:16:50.298Z,96383.59
2023-12-09T22:19:17.613Z,96381.41
2023-12-09T22:21:45.366Z,96371.56
2023-12-09T22:24:12.576Z,96371.03
2023-12-09T22:26:43.673Z,96372.78
2023-12-09T22:29:11.141Z,96369.38
2023-12-09T22:31:42.733Z,96375.50
2023-12-09T22:34:10.871Z,96371.34
2023-12-09T22:36:38.349Z,96372.56
2023-12-09T22:39:09.106Z,96366.19
2023-12-09T22:41:36.467Z,96363.81
2023-12-09T22:44:05.474Z,96362.09
2023-12-09T22:46:33.048Z,96370.72
2023-12-09T22:49:01.039Z,96374.66
2023-12-09T22:51:29.053Z,96372.25
2023-12-09T22:53:56.419Z,96368.81
2023-12-09T22:56:24.251Z,96370.53
2023-12-09T22:58:52.898Z,96355.38
2023-12-09T23:01:24.580Z,96363.97
2023-12-09T23:03:51.896Z,96362.78
2023-12-09T23:06:19.609Z,96347.88
2023-12-09T23:08:47.261Z,96347.44
2023-12-09T23:11:14.718Z,96352.38
2023-12-09T23:13:41.993Z,96362.69
2023-12-09T23:16:10.806Z,96365.59
2023-12-09T23:18:39.135Z,96371.97
2023-12-09T23:21:07.763Z,96375.59
2023-12-09T23:23:35.447Z,96377.81
2023-12-09T23:26:02.797Z,96374.88
2023-12-09T23:28:30.037Z,96374.66
2023-12-09T23:30:57.264Z,96376.13
2023-12-09T23:33:24.857Z,96372.69
2023-12-09T23:35:52.076Z,96372.97
2023-12-09T23:38:19.535Z,96368.81
2023-12-09T23:40:46.670Z,96371.78
2023-12-09T23:43:13.769Z,96375.72
2023-12-09T23:45:41.649Z,96374.25
2023-12-09T23:48:09.039Z,96379.66
2023-12-09T23:50:36.278Z,96385.28
2023-12-09T23:53:03.665Z,96381.84
2023-12-09T23:55:30.813Z,96382.34
2023-12-09T23:57:58.016Z,96385.06
